sensor_id;sensor_type;location;lat;lon;timestamp;pressure;altitude;pressure_sealevel;temperature
6550;BMP280;15142;48.888;9.134;2023-06-14T00:00:47;97597.50;;;14.58
6550;BMP280;15142;48.888;9.134;2023-06-14T00:03:18;97596.44;;;14.59
6550;BMP280;15142;48.888;9.134;2023-06-14T00:05:47;97602.75;;;14.61
6550;BMP280;15142;48.888;9.134;2023-06-14T00:08:16;97602.91;;;14.65
6550;BMP280;15142;48.888;9.134;2023-06-14T00:10:49;97610.66;;;14.57
6550;BMP280;15142;48.888;9.134;2023-06-14T00:13:18;97605.81;;;14.55
6550;BMP280;15142;48.888;9.134;2023-06-14T00:15:46;97612.75;;;14.55
6550;BMP280;15142;48.888;9.134;2023-06-14T00:18:15;97600.66;;;14.55
6550;BMP280;15142;48.888;9.134;2023-06-14T00:20:43;97591.78;;;14.44
6550;BMP280;15142;48.888;9.134;2023-06-14T00:23:12;97597.59;;;14.33
6550;BMP280;15142;48.888;9.134;2023-06-14T00:25:41;97607.56;;;14.26
6550;BMP280;15142;48.888;9.134;2023-06-14T00:28:14;97599.28;;;14.21
6550;BMP280;15142;48.888;9.134;2023-06-14T00:30:43;97599.88;;;14.26
6550;BMP280;15142;48.888;9.134;2023-06-14T00:33:12;97613.03;;;14.25
6550;BMP280;15142;48.888;9.134;2023-06-14T00:35:44;97607.91;;;14.25
6550;BMP280;15142;48.888;9.134;2023-06-14T00:38:13;97602.31;;;14.23
6550;BMP280;15142;48.888;9.134;2023-06-14T00:40:41;97606.09;;;14.17
6550;BMP280;15142;48.888;9.134;2023-06-14T00:43:15;97604.75;;;14.02
6550;BMP280;15142;48.888;9.134;2023-06-14T00:45:44;97595.09;;;14.00
6550;BMP280;15142;48.888;9.134;2023-06-14T00:48:15;97589.97;;;14.00
6550;BMP280;15142;48.888;9.134;2023-06-14T00:50:44;97600.38;;;14.03
6550;BMP280;15142;48.888;9.134;2023-06-14T00:53:15;97601.63;;;13.97
6550;BMP280;15142;48.888;9.134;2023-06-14T00:55:44;97600.84;;;13.80
6550;BMP280;15142;48.888;9.134;2023-06-14T00:58:19;97596.63;;;13.75
6550;BMP280;15142;48.888;9.134;2023-06-14T01:00:48;97600.59;;;13.73
6550;BMP280;15142;48.888;9.134;2023-06-14T01:03:17;97599.66;;;13.69
6550;BMP280;15142;48.888;9.134;2023-06-14T01:05:48;97602.53;;;13.68
6550;BMP280;15142;48.888;9.134;2023-06-14T01:08:24;97604.47;;;13.71
6550;BMP280;15142;48.888;9.134;2023-06-14T01:11:02;97597.09;;;13.77
6550;BMP280;15142;48.888;9.134;2023-06-14T01:13:38;97604.34;;;13.75
6550;BMP280;15142;48.888;9.134;2023-06-14T01:16:08;97607.50;;;13.73
6550;BMP280;15142;48.888;9.134;2023-06-14T01:18:38;97614.44;;;13.64
6550;BMP280;15142;48.888;9.134;2023-06-14T01:21:20;97612.47;;;13.61
6550;BMP280;15142;48.888;9.134;2023-06-14T01:23:52;97605.41;;;13.49
6550;BMP280;15142;48.888;9.134;2023-06-14T01:26:22;97616.56;;;13.53
6550;BMP280;15142;48.888;9.134;2023-06-14T01:28:52;97606.72;;;13.47
6550;BMP280;15142;48.888;9.134;2023-06-14T01:31:24;97609.72;;;13.32
6550;BMP280;15142;48.888;9.134;2023-06-14T01:33:55;97614.28;;;13.35
6550;BMP280;15142;48.888;9.134;2023-06-14T01:36:26;97620.13;;;13.27
6550;BMP280;15142;48.888;9.134;2023-06-14T01:38:59;97607.75;;;13.13
6550;BMP280;15142;48.888;9.134;2023-06-14T01:41:29;97606.09;;;13.16
6550;BMP280;15142;48.888;9.134;2023-06-14T01:43:58;97605.19;;;13.13
6550;BMP280;15142;48.888;9.134;2023-06-14T01:46:28;97609.28;;;13.22
6550;BMP280;15142;48.888;9.134;2023-06-14T01:48:57;97611.09;;;13.21
6550;BMP280;15142;48.888;9.134;2023-06-14T01:51:26;97613.94;;;13.28
6550;BMP280;15142;48.888;9.134;2023-06-14T01:53:55;97616.81;;;13.27
6550;BMP280;15142;48.888;9.134;2023-06-14T01:56:26;97611.69;;;13.18
6550;BMP280;15142;48.888;9.134;2023-06-14T01:58:55;97624.13;;;13.03
6550;BMP280;15142;48.888;9.134;2023-06-14T02:01:24;97616.84;;;12.80
6550;BMP280;15142;48.888;9.134;2023-06-14T02:03:53;97623.78;;;12.80
6550;BMP280;15142;48.888;9.134;2023-06-14T02:06:22;97620.41;;;12.62
6550;BMP280;15142;48.888;9.134;2023-06-14T02:08:51;97608.63;;;12.61
6550;BMP280;15142;48.888;9.134;2023-06-14T02:11:20;97615.75;;;12.73
6550;BMP280;15142;48.888;9.134;2023-06-14T02:13:52;97627.53;;;12.82
6550;BMP280;15142;48.888;9.134;2023-06-14T02:16:21;97619.72;;;12.87
6550;BMP280;15142;48.888;9.134;2023-06-14T02:18:50;97620.81;;;12.94
6550;BMP280;15142;48.888;9.134;2023-06-14T02:21:18;97623.53;;;12.98
6550;BMP280;15142;48.888;9.134;2023-06-14T02:23:47;97615.38;;;12.96
6550;BMP280;15142;48.888;9.134;2023-06-14T02:26:16;97614.91;;;12.86
6550;BMP280;15142;48.888;9.134;2023-06-14T02:28:45;97621.50;;;12.78
6550;BMP280;15142;48.888;9.134;2023-06-14T02:31:16;97614.53;;;12.62
6550;BMP280;15142;48.888;9.134;2023-06-14T02:33:44;97615.88;;;12.59
6550;BMP280;15142;48.888;9.134;2023-06-14T02:36:13;97615.72;;;12.64
6550;BMP280;15142;48.888;9.134;2023-06-14T02:38:42;97618.47;;;12.68
6550;BMP280;15142;48.888;9.134;2023-06-14T02:41:11;97629.75;;;12.67
6550;BMP280;15142;48.888;9.134;2023-06-14T02:43:39;97620.97;;;12.59
6550;BMP280;15142;48.888;9.134;2023-06-14T02:46:08;97618.72;;;12.58
6550;BMP280;15142;48.888;9.134;2023-06-14T02:48:39;97628.94;;;12.50
6550;BMP280;15142;48.888;9.134;2023-06-14T02:51:09;97625.44;;;12.46
6550;BMP280;15142;48.888;9.134;2023-06-14T02:53:38;97617.75;;;12.46
6550;BMP280;15142;48.888;9.134;2023-06-14T02:56:07;97615.19;;;12.46
6550;BMP280;15142;48.888;9.134;2023-06-14T02:58:38;97614.19;;;12.33
6550;BMP280;15142;48.888;9.134;2023-06-14T03:01:07;97613.59;;;12.28
6550;BMP280;15142;48.888;9.134;2023-06-14T03:03:40;97613.22;;;12.21
6550;BMP280;15142;48.888;9.134;2023-06-14T03:06:09;97615.94;;;12.25
6550;BMP280;15142;48.888;9.134;2023-06-14T03:08:40;97622.28;;;12.27
6550;BMP280;15142;48.888;9.134;2023-06-14T03:11:13;97619.72;;;12.27
6550;BMP280;15142;48.888;9.134;2023-06-14T03:13:43;97629.31;;;12.22
6550;BMP280;15142;48.888;9.134;2023-06-14T03:16:12;97636.66;;;12.15
6550;BMP280;15142;48.888;9.134;2023-06-14T03:18:46;97631.97;;;12.08
6550;BMP280;15142;48.888;9.134;2023-06-14T03:21:15;97633.13;;;12.02
6550;BMP280;15142;48.888;9.134;2023-06-14T03:23:45;97632.00;;;11.95
6550;BMP280;15142;48.888;9.134;2023-06-14T03:26:14;97639.47;;;11.92
6550;BMP280;15142;48.888;9.134;2023-06-14T03:28:45;97636.84;;;11.97
6550;BMP280;15142;48.888;9.134;2023-06-14T03:31:14;97637.25;;;12.12
6550;BMP280;15142;48.888;9.134;2023-06-14T03:33:48;97648.28;;;12.21
6550;BMP280;15142;48.888;9.134;2023-06-14T03:36:17;97647.53;;;12.20
6550;BMP280;15142;48.888;9.134;2023-06-14T03:38:46;97648.88;;;12.18
6550;BMP280;15142;48.888;9.134;2023-06-14T03:41:16;97652.88;;;12.10
6550;BMP280;15142;48.888;9.134;2023-06-14T03:43:45;97648.00;;;12.00
6550;BMP280;15142;48.888;9.134;2023-06-14T03:46:14;97653.41;;;11.99
6550;BMP280;15142;48.888;9.134;2023-06-14T03:48:43;97656.56;;;11.96
6550;BMP280;15142;48.888;9.134;2023-06-14T03:51:16;97654.00;;;11.96
6550;BMP280;15142;48.888;9.134;2023-06-14T03:53:44;97669.38;;;12.04
6550;BMP280;15142;48.888;9.134;2023-06-14T03:56:13;97670.34;;;12.08
6550;BMP280;15142;48.888;9.134;2023-06-14T03:58:43;97674.69;;;12.08
6550;BMP280;15142;48.888;9.134;2023-06-14T04:01:11;97666.00;;;12.17
6550;BMP280;15142;48.888;9.134;2023-06-14T04:03:41;97678.25;;;12.20
6550;BMP280;15142;48.888;9.134;2023-06-14T04:06:10;97679.16;;;12.24
6550;BMP280;15142;48.888;9.134;2023-06-14T04:08:47;97687.09;;;12.36
6550;BMP280;15142;48.888;9.134;2023-06-14T04:11:15;97686.31;;;12.35
6550;BMP280;15142;48.888;9.134;2023-06-14T04:13:45;97679.19;;;12.46
6550;BMP280;15142;48.888;9.134;2023-06-14T04:16:14;97688.09;;;12.56
6550;BMP280;15142;48.888;9.134;2023-06-14T04:18:42;97688.63;;;12.67
6550;BMP280;15142;48.888;9.134;2023-06-14T04:21:12;97688.84;;;12.79
6550;BMP280;15142;48.888;9.134;2023-06-14T04:23:40;97691.56;;;12.82
6550;BMP280;15142;48.888;9.134;2023-06-14T04:26:13;97693.53;;;12.85
6550;BMP280;15142;48.888;9.134;2023-06-14T04:28:45;97704.59;;;12.94
6550;BMP280;15142;48.888;9.134;2023-06-14T04:31:13;97704.91;;;13.01
6550;BMP280;15142;48.888;9.134;2023-06-14T04:33:42;97700.13;;;13.08
6550;BMP280;15142;48.888;9.134;2023-06-14T04:36:16;97697.78;;;13.19
6550;BMP280;15142;48.888;9.134;2023-06-14T04:38:47;97705.00;;;13.17
6550;BMP280;15142;48.888;9.134;2023-06-14T04:41:23;97711.19;;;13.25
6550;BMP280;15142;48.888;9.134;2023-06-14T04:43:56;97713.06;;;13.41
6550;BMP280;15142;48.888;9.134;2023-06-14T04:46:28;97712.00;;;13.50
6550;BMP280;15142;48.888;9.134;2023-06-14T04:48:58;97712.94;;;13.63
6550;BMP280;15142;48.888;9.134;2023-06-14T04:51:28;97707.88;;;13.79
6550;BMP280;15142;48.888;9.134;2023-06-14T04:53:59;97718.13;;;13.96
6550;BMP280;15142;48.888;9.134;2023-06-14T04:56:32;97728.53;;;14.00
6550;BMP280;15142;48.888;9.134;2023-06-14T04:59:01;97729.28;;;14.00
6550;BMP280;15142;48.888;9.134;2023-06-14T05:01:30;97738.34;;;14.06
6550;BMP280;15142;48.888;9.134;2023-06-14T05:04:00;97738.22;;;14.19
6550;BMP280;15142;48.888;9.134;2023-06-14T05:06:28;97741.50;;;14.28
6550;BMP280;15142;48.888;9.134;2023-06-14T05:08:58;97734.13;;;14.35
6550;BMP280;15142;48.888;9.134;2023-06-14T05:11:28;97739.22;;;14.43
6550;BMP280;15142;48.888;9.134;2023-06-14T05:13:59;97733.16;;;14.56
6550;BMP280;15142;48.888;9.134;2023-06-14T05:16:28;97732.81;;;14.66
6550;BMP280;15142;48.888;9.134;2023-06-14T05:18:57;97728.88;;;14.77
6550;BMP280;15142;48.888;9.134;2023-06-14T05:21:27;97738.06;;;14.86
6550;BMP280;15142;48.888;9.134;2023-06-14T05:23:56;97742.13;;;14.95
6550;BMP280;15142;48.888;9.134;2023-06-14T05:26:24;97739.41;;;15.00
6550;BMP280;15142;48.888;9.134;2023-06-14T05:28:54;97745.56;;;15.08
6550;BMP280;15142;48.888;9.134;2023-06-14T05:31:25;97746.56;;;15.15
6550;BMP280;15142;48.888;9.134;2023-06-14T05:33:54;97745.63;;;15.28
6550;BMP280;15142;48.888;9.134;2023-06-14T05:36:22;97742.22;;;15.36
6550;BMP280;15142;48.888;9.134;2023-06-14T05:38:51;97742.31;;;15.47
6550;BMP280;15142;48.888;9.134;2023-06-14T05:41:24;97750.00;;;15.56
6550;BMP280;15142;48.888;9.134;2023-06-14T05:43:52;97743.50;;;15.58
6550;BMP280;15142;48.888;9.134;2023-06-14T05:46:21;97746.19;;;15.62
6550;BMP280;15142;48.888;9.134;2023-06-14T05:48:54;97741.75;;;15.71
6550;BMP280;15142;48.888;9.134;2023-06-14T05:51:23;97756.53;;;15.82
6550;BMP280;15142;48.888;9.134;2023-06-14T05:53:53;97753.56;;;15.92
6550;BMP280;15142;48.888;9.134;2023-06-14T05:56:22;97746.72;;;15.96
6550;BMP280;15142;48.888;9.134;2023-06-14T05:58:51;97757.13;;;15.99
6550;BMP280;15142;48.888;9.134;2023-06-14T06:01:19;97749.84;;;16.01
6550;BMP280;15142;48.888;9.134;2023-06-14T06:03:48;97739.91;;;16.11
6550;BMP280;15142;48.888;9.134;2023-06-14T06:06:19;97751.34;;;16.22
6550;BMP280;15142;48.888;9.134;2023-06-14T06:08:48;97752.50;;;16.25
6550;BMP280;15142;48.888;9.134;2023-06-14T06:11:17;97747.97;;;16.42
6550;BMP280;15142;48.888;9.134;2023-06-14T06:13:45;97757.88;;;16.52
6550;BMP280;15142;48.888;9.134;2023-06-14T06:16:14;97762.81;;;16.56
6550;BMP280;15142;48.888;9.134;2023-06-14T06:18:43;97759.91;;;16.58
6550;BMP280;15142;48.888;9.134;2023-06-14T06:21:11;97766.16;;;16.69
6550;BMP280;15142;48.888;9.134;2023-06-14T06:23:43;97771.69;;;16.79
6550;BMP280;15142;48.888;9.134;2023-06-14T06:26:12;97775.09;;;16.83
6550;BMP280;15142;48.888;9.134;2023-06-14T06:28:40;97773.53;;;16.90
6550;BMP280;15142;48.888;9.134;2023-06-14T06:31:09;97772.97;;;16.97
6550;BMP280;15142;48.888;9.134;2023-06-14T06:33:38;97777.22;;;17.13
6550;BMP280;15142;48.888;9.134;2023-06-14T06:36:07;97772.97;;;17.20
6550;BMP280;15142;48.888;9.134;2023-06-14T06:38:36;97773.22;;;17.15
6550;BMP280;15142;48.888;9.134;2023-06-14T06:41:07;97772.81;;;17.13
6550;BMP280;15142;48.888;9.134;2023-06-14T06:43:35;97782.25;;;17.33
6550;BMP280;15142;48.888;9.134;2023-06-14T06:46:04;97770.97;;;17.26
6550;BMP280;15142;48.888;9.134;2023-06-14T06:48:33;97774.41;;;17.41
6550;BMP280;15142;48.888;9.134;2023-06-14T06:51:01;97777.69;;;17.66
6550;BMP280;15142;48.888;9.134;2023-06-14T06:53:31;97775.88;;;17.66
6550;BMP280;15142;48.888;9.134;2023-06-14T06:55:59;97778.09;;;17.79
6550;BMP280;15142;48.888;9.134;2023-06-14T06:58:31;97782.34;;;17.99
6550;BMP280;15142;48.888;9.134;2023-06-14T07:00:59;97790.28;;;18.06
6550;BMP280;15142;48.888;9.134;2023-06-14T07:03:27;97791.50;;;18.23
6550;BMP280;15142;48.888;9.134;2023-06-14T07:05:56;97796.06;;;18.42
6550;BMP280;15142;48.888;9.134;2023-06-14T07:08:25;97796.59;;;18.47
6550;BMP280;15142;48.888;9.134;2023-06-14T07:10:54;97798.09;;;18.63
6550;BMP280;15142;48.888;9.134;2023-06-14T07:13:22;97794.69;;;18.74
6550;BMP280;15142;48.888;9.134;2023-06-14T07:15:54;97806.44;;;18.87
6550;BMP280;15142;48.888;9.134;2023-06-14T07:18:22;97802.31;;;18.98
6550;BMP280;15142;48.888;9.134;2023-06-14T07:20:52;97807.28;;;18.91
6550;BMP280;15142;48.888;9.134;2023-06-14T07:23:22;97807.28;;;18.91
6550;BMP280;15142;48.888;9.134;2023-06-14T07:25:50;97808.44;;;19.09
6550;BMP280;15142;48.888;9.134;2023-06-14T07:28:19;97806.28;;;19.11
6550;BMP280;15142;48.888;9.134;2023-06-14T07:30:47;97811.63;;;19.18
6550;BMP280;15142;48.888;9.134;2023-06-14T07:33:19;97813.81;;;19.16
6550;BMP280;15142;48.888;9.134;2023-06-14T07:35:48;97822.03;;;19.21
6550;BMP280;15142;48.888;9.134;2023-06-14T07:38:18;97819.47;;;19.36
6550;BMP280;15142;48.888;9.134;2023-06-14T07:40:46;97826.94;;;19.56
6550;BMP280;15142;48.888;9.134;2023-06-14T07:43:14;97823.94;;;19.39
6550;BMP280;15142;48.888;9.134;2023-06-14T07:45:43;97821.03;;;19.41
6550;BMP280;15142;48.888;9.134;2023-06-14T07:48:12;97819.66;;;19.81
6550;BMP280;15142;48.888;9.134;2023-06-14T07:50:43;97822.75;;;19.86
6550;BMP280;15142;48.888;9.134;2023-06-14T07:53:11;97816.41;;;20.02
6550;BMP280;15142;48.888;9.134;2023-06-14T07:55:40;97825.69;;;20.22
6550;BMP280;15142;48.888;9.134;2023-06-14T07:58:09;97818.28;;;20.24
6550;BMP280;15142;48.888;9.134;2023-06-14T08:00:38;97817.69;;;20.11
6550;BMP280;15142;48.888;9.134;2023-06-14T08:03:06;97819.94;;;20.32
6550;BMP280;15142;48.888;9.134;2023-06-14T08:05:35;97821.00;;;20.49
6550;BMP280;15142;48.888;9.134;2023-06-14T08:08:06;97815.47;;;20.73
6550;BMP280;15142;48.888;9.134;2023-06-14T08:10:35;97819.59;;;20.99
6550;BMP280;15142;48.888;9.134;2023-06-14T08:13:03;97815.72;;;21.12
6550;BMP280;15142;48.888;9.134;2023-06-14T08:15:32;97814.31;;;20.92
6550;BMP280;15142;48.888;9.134;2023-06-14T08:18:00;97811.75;;;20.96
6550;BMP280;15142;48.888;9.134;2023-06-14T08:20:29;97821.69;;;21.41
6550;BMP280;15142;48.888;9.134;2023-06-14T08:22:58;97823.47;;;21.63
6550;BMP280;15142;48.888;9.134;2023-06-14T08:25:30;97826.69;;;21.82
6550;BMP280;15142;48.888;9.134;2023-06-14T08:27:58;97819.00;;;21.60
6550;BMP280;15142;48.888;9.134;2023-06-14T08:30:27;97822.00;;;21.37
6550;BMP280;15142;48.888;9.134;2023-06-14T08:32:55;97826.97;;;21.74
6550;BMP280;15142;48.888;9.134;2023-06-14T08:35:24;97829.88;;;21.69
6550;BMP280;15142;48.888;9.134;2023-06-14T08:37:53;97826.09;;;21.92
6550;BMP280;15142;48.888;9.134;2023-06-14T08:40:23;97828.97;;;22.19
6550;BMP280;15142;48.888;9.134;2023-06-14T08:42:54;97836.28;;;21.78
6550;BMP280;15142;48.888;9.134;2023-06-14T08:45:24;97832.47;;;22.01
6550;BMP280;15142;48.888;9.134;2023-06-14T08:47:53;97834.59;;;21.92
6550;BMP280;15142;48.888;9.134;2023-06-14T08:50:24;97836.09;;;21.93
6550;BMP280;15142;48.888;9.134;2023-06-14T08:52:56;97827.72;;;22.07
6550;BMP280;15142;48.888;9.134;2023-06-14T08:55:26;97831.69;;;22.30
6550;BMP280;15142;48.888;9.134;2023-06-14T08:57:58;97827.06;;;22.52
6550;BMP280;15142;48.888;9.134;2023-06-14T09:00:28;97831.72;;;22.37
6550;BMP280;15142;48.888;9.134;2023-06-14T09:02:58;97836.09;;;22.26
6550;BMP280;15142;48.888;9.134;2023-06-14T09:05:28;97834.13;;;22.16
6550;BMP280;15142;48.888;9.134;2023-06-14T09:07:57;97829.41;;;22.25
6550;BMP280;15142;48.888;9.134;2023-06-14T09:10:27;97832.19;;;22.42
6550;BMP280;15142;48.888;9.134;2023-06-14T09:12:58;97829.81;;;22.30
6550;BMP280;15142;48.888;9.134;2023-06-14T09:15:28;97822.75;;;22.70
6550;BMP280;15142;48.888;9.134;2023-06-14T09:17:58;97831.34;;;22.74
6550;BMP280;15142;48.888;9.134;2023-06-14T09:20:30;97839.69;;;22.96
6550;BMP280;15142;48.888;9.134;2023-06-14T09:23:00;97825.00;;;22.75
6550;BMP280;15142;48.888;9.134;2023-06-14T09:25:30;97820.88;;;22.70
6550;BMP280;15142;48.888;9.134;2023-06-14T09:28:02;97834.84;;;22.98
6550;BMP280;15142;48.888;9.134;2023-06-14T09:30:36;97830.28;;;22.82
6550;BMP280;15142;48.888;9.134;2023-06-14T09:33:05;97837.75;;;22.90
6550;BMP280;15142;48.888;9.134;2023-06-14T09:35:34;97830.66;;;22.84
6550;BMP280;15142;48.888;9.134;2023-06-14T09:38:03;97822.38;;;22.68
6550;BMP280;15142;48.888;9.134;2023-06-14T09:40:34;97834.75;;;22.85
6550;BMP280;15142;48.888;9.134;2023-06-14T09:43:07;97827.75;;;22.92
6550;BMP280;15142;48.888;9.134;2023-06-14T09:45:36;97826.59;;;23.49
6550;BMP280;15142;48.888;9.134;2023-06-14T09:48:06;97830.50;;;23.83
6550;BMP280;15142;48.888;9.134;2023-06-14T09:50:35;97830.09;;;23.81
6550;BMP280;15142;48.888;9.134;2023-06-14T09:53:06;97825.75;;;23.32
6550;BMP280;15142;48.888;9.134;2023-06-14T09:55:36;97825.44;;;23.40
6550;BMP280;15142;48.888;9.134;2023-06-14T09:58:09;97828.16;;;23.61
6550;BMP280;15142;48.888;9.134;2023-06-14T10:00:39;97834.13;;;23.68
6550;BMP280;15142;48.888;9.134;2023-06-14T10:03:13;97824.53;;;23.82
6550;BMP280;15142;48.888;9.134;2023-06-14T10:05:45;97821.25;;;24.16
6550;BMP280;15142;48.888;9.134;2023-06-14T10:08:15;97822.38;;;24.39
6550;BMP280;15142;48.888;9.134;2023-06-14T10:10:45;97818.66;;;24.64
6550;BMP280;15142;48.888;9.134;2023-06-14T10:13:16;97817.13;;;24.77
6550;BMP280;15142;48.888;9.134;2023-06-14T10:15:52;97815.63;;;24.07
6550;BMP280;15142;48.888;9.134;2023-06-14T10:18:30;97813.69;;;23.77
6550;BMP280;15142;48.888;9.134;2023-06-14T10:21:06;97817.72;;;23.57
6550;BMP280;15142;48.888;9.134;2023-06-14T10:23:41;97823.56;;;23.34
6550;BMP280;15142;48.888;9.134;2023-06-14T10:26:19;97819.00;;;23.20
6550;BMP280;15142;48.888;9.134;2023-06-14T10:29:00;97814.94;;;23.23
6550;BMP280;15142;48.888;9.134;2023-06-14T10:31:43;97806.22;;;23.72
6550;BMP280;15142;48.888;9.134;2023-06-14T10:34:12;97805.09;;;23.80
6550;BMP280;15142;48.888;9.134;2023-06-14T10:36:42;97809.44;;;23.35
6550;BMP280;15142;48.888;9.134;2023-06-14T10:39:15;97804.66;;;22.87
6550;BMP280;15142;48.888;9.134;2023-06-14T10:41:53;97808.34;;;22.86
6550;BMP280;15142;48.888;9.134;2023-06-14T10:44:40;97806.94;;;23.66
6550;BMP280;15142;48.888;9.134;2023-06-14T10:49:51;97814.91;;;24.65
6550;BMP280;15142;48.888;9.134;2023-06-14T10:52:22;97816.34;;;25.11
6550;BMP280;15142;48.888;9.134;2023-06-14T10:55:08;97813.28;;;25.40
6550;BMP280;15142;48.888;9.134;2023-06-14T10:57:42;97810.88;;;26.26
6550;BMP280;15142;48.888;9.134;2023-06-14T11:00:14;97813.16;;;26.67
6550;BMP280;15142;48.888;9.134;2023-06-14T11:06:21;97807.06;;;24.17
6550;BMP280;15142;48.888;9.134;2023-06-14T11:12:00;97808.94;;;24.75
6550;BMP280;15142;48.888;9.134;2023-06-14T11:14:30;97816.34;;;25.92
6550;BMP280;15142;48.888;9.134;2023-06-14T11:17:01;97819.72;;;26.45
6550;BMP280;15142;48.888;9.134;2023-06-14T11:19:30;97812.16;;;26.54
6550;BMP280;15142;48.888;9.134;2023-06-14T11:21:59;97814.31;;;27.61
6550;BMP280;15142;48.888;9.134;2023-06-14T11:24:27;97821.66;;;27.11
6550;BMP280;15142;48.888;9.134;2023-06-14T11:26:56;97819.81;;;27.70
6550;BMP280;15142;48.888;9.134;2023-06-14T11:29:25;97821.78;;;28.56
6550;BMP280;15142;48.888;9.134;2023-06-14T11:31:53;97815.88;;;28.52
6550;BMP280;15142;48.888;9.134;2023-06-14T11:34:24;97814.94;;;28.62
6550;BMP280;15142;48.888;9.134;2023-06-14T11:36:53;97807.28;;;26.92
6550;BMP280;15142;48.888;9.134;2023-06-14T11:39:24;97824.81;;;26.16
6550;BMP280;15142;48.888;9.134;2023-06-14T11:41:53;97810.25;;;26.58
6550;BMP280;15142;48.888;9.134;2023-06-14T11:44:23;97814.44;;;26.89
6550;BMP280;15142;48.888;9.134;2023-06-14T11:46:52;97805.16;;;26.38
6550;BMP280;15142;48.888;9.134;2023-06-14T11:49:25;97817.91;;;26.36
6550;BMP280;15142;48.888;9.134;2023-06-14T11:51:54;97805.09;;;26.01
6550;BMP280;15142;48.888;9.134;2023-06-14T11:54:22;97816.84;;;25.66
6550;BMP280;15142;48.888;9.134;2023-06-14T11:56:51;97819.91;;;26.21
6550;BMP280;15142;48.888;9.134;2023-06-14T11:59:20;97813.09;;;26.31
6550;BMP280;15142;48.888;9.134;2023-06-14T12:01:49;97810.53;;;26.24
6550;BMP280;15142;48.888;9.134;2023-06-14T12:04:26;97809.44;;;26.65
6550;BMP280;15142;48.888;9.134;2023-06-14T12:06:55;97815.78;;;25.60
6550;BMP280;15142;48.888;9.134;2023-06-14T12:09:23;97808.50;;;26.85
6550;BMP280;15142;48.888;9.134;2023-06-14T12:12:00;97806.19;;;27.78
6550;BMP280;15142;48.888;9.134;2023-06-14T12:14:32;97807.75;;;29.04
6550;BMP280;15142;48.888;9.134;2023-06-14T12:17:04;97809.38;;;28.98
6550;BMP280;15142;48.888;9.134;2023-06-14T12:19:44;97810.94;;;28.77
6550;BMP280;15142;48.888;9.134;2023-06-14T12:22:13;97813.06;;;28.82
6550;BMP280;15142;48.888;9.134;2023-06-14T12:24:42;97826.19;;;29.89
6550;BMP280;15142;48.888;9.134;2023-06-14T12:27:11;97812.31;;;29.19
6550;BMP280;15142;48.888;9.134;2023-06-14T12:29:42;97816.88;;;29.34
6550;BMP280;15142;48.888;9.134;2023-06-14T12:32:11;97798.16;;;29.48
6550;BMP280;15142;48.888;9.134;2023-06-14T12:34:43;97789.16;;;28.12
6550;BMP280;15142;48.888;9.134;2023-06-14T12:37:11;97808.72;;;29.29
6550;BMP280;15142;48.888;9.134;2023-06-14T12:39:40;97804.97;;;30.68
6550;BMP280;15142;48.888;9.134;2023-06-14T12:42:08;97812.47;;;31.46
6550;BMP280;15142;48.888;9.134;2023-06-14T12:44:38;97804.91;;;31.93
6550;BMP280;15142;48.888;9.134;2023-06-14T12:47:08;97814.00;;;32.47
6550;BMP280;15142;48.888;9.134;2023-06-14T12:49:39;97808.88;;;31.40
6550;BMP280;15142;48.888;9.134;2023-06-14T12:52:10;97812.81;;;30.55
6550;BMP280;15142;48.888;9.134;2023-06-14T12:54:39;97810.81;;;29.53
6550;BMP280;15142;48.888;9.134;2023-06-14T12:57:08;97805.53;;;29.03
6550;BMP280;15142;48.888;9.134;2023-06-14T12:59:37;97789.38;;;29.20
6550;BMP280;15142;48.888;9.134;2023-06-14T13:02:13;97795.41;;;27.17
6550;BMP280;15142;48.888;9.134;2023-06-14T13:04:41;97788.88;;;25.63
6550;BMP280;15142;48.888;9.134;2023-06-14T13:07:12;97793.84;;;25.41
6550;BMP280;15142;48.888;9.134;2023-06-14T13:09:42;97807.81;;;25.84
6550;BMP280;15142;48.888;9.134;2023-06-14T13:12:11;97811.19;;;28.63
6550;BMP280;15142;48.888;9.134;2023-06-14T13:14:40;97802.25;;;29.33
6550;BMP280;15142;48.888;9.134;2023-06-14T13:17:09;97813.84;;;30.46
6550;BMP280;15142;48.888;9.134;2023-06-14T13:19:37;97823.56;;;30.76
6550;BMP280;15142;48.888;9.134;2023-06-14T13:22:08;97825.56;;;31.37
6550;BMP280;15142;48.888;9.134;2023-06-14T13:24:39;97820.56;;;31.51
6550;BMP280;15142;48.888;9.134;2023-06-14T13:27:08;97821.19;;;30.94
6550;BMP280;15142;48.888;9.134;2023-06-14T13:29:36;97817.75;;;31.46
6550;BMP280;15142;48.888;9.134;2023-06-14T13:32:06;97808.19;;;29.53
6550;BMP280;15142;48.888;9.134;2023-06-14T13:34:35;97814.06;;;29.60
6550;BMP280;15142;48.888;9.134;2023-06-14T13:37:04;97805.72;;;28.92
6550;BMP280;15142;48.888;9.134;2023-06-14T13:39:33;97815.63;;;29.58
6550;BMP280;15142;48.888;9.134;2023-06-14T13:42:06;97814.66;;;30.15
6550;BMP280;15142;48.888;9.134;2023-06-14T13:44:36;97813.38;;;30.63
6550;BMP280;15142;48.888;9.134;2023-06-14T13:47:05;97818.03;;;30.59
6550;BMP280;15142;48.888;9.134;2023-06-14T13:49:34;97807.03;;;30.32
6550;BMP280;15142;48.888;9.134;2023-06-14T13:52:04;97798.81;;;29.17
6550;BMP280;15142;48.888;9.134;2023-06-14T13:54:32;97791.91;;;28.05
6550;BMP280;15142;48.888;9.134;2023-06-14T13:57:02;97794.75;;;28.14
6550;BMP280;15142;48.888;9.134;2023-06-14T13:59:33;97788.94;;;28.48
6550;BMP280;15142;48.888;9.134;2023-06-14T14:02:02;97792.00;;;28.43
6550;BMP280;15142;48.888;9.134;2023-06-14T14:04:31;97788.44;;;28.53
6550;BMP280;15142;48.888;9.134;2023-06-14T14:06:59;97783.34;;;28.46
6550;BMP280;15142;48.888;9.134;2023-06-14T14:09:29;97780.31;;;28.67
6550;BMP280;15142;48.888;9.134;2023-06-14T14:11:57;97788.81;;;28.33
6550;BMP280;15142;48.888;9.134;2023-06-14T14:14:27;97790.56;;;28.16
6550;BMP280;15142;48.888;9.134;2023-06-14T14:16:58;97784.13;;;27.72
6550;BMP280;15142;48.888;9.134;2023-06-14T14:19:26;97782.06;;;27.61
6550;BMP280;15142;48.888;9.134;2023-06-14T14:21:55;97773.13;;;27.29
6550;BMP280;15142;48.888;9.134;2023-06-14T14:24:24;97769.31;;;26.71
6550;BMP280;15142;48.888;9.134;2023-06-14T14:26:52;97767.69;;;27.13
6550;BMP280;15142;48.888;9.134;2023-06-14T14:29:25;97772.53;;;27.18
6550;BMP280;15142;48.888;9.134;2023-06-14T14:31:55;97783.06;;;26.82
6550;BMP280;15142;48.888;9.134;2023-06-14T14:34:27;97781.44;;;26.58
6550;BMP280;15142;48.888;9.134;2023-06-14T14:36:55;97780.38;;;26.52
6550;BMP280;15142;48.888;9.134;2023-06-14T14:39:24;97777.19;;;25.85
6550;BMP280;15142;48.888;9.134;2023-06-14T14:41:52;97785.13;;;26.24
6550;BMP280;15142;48.888;9.134;2023-06-14T14:44:22;97788.09;;;26.23
6550;BMP280;15142;48.888;9.134;2023-06-14T14:46:50;97780.88;;;26.41